Time;durP1;ratioP1;P1;durP2;ratioP2;P2;SDS_P1;SDS_P2;PMS_P1;PMS_P2;Temp;Humidity;BMP_temperature;BMP_pressure;BME280_temperature;BME280_humidity;BME280_pressure;Samples;Min_cycle;Max_cycle;Signal;HPM_P1;HPM_P2
2021/04/27 00:02:15;;;;;;;0.00;0.00;;;;;;;;;;5015624;28;20168;-61
2021/04/27 00:04:41;;;;;;;0.00;0.00;;;;;;;;;;5016591;28;20195;-61
2021/04/27 00:07:09;;;;;;;6.40;2.40;;;;;;;;;;5018659;28;20638;-62
2021/04/27 00:09:36;;;;;;;0.00;0.00;;;;;;;;;;5020380;28;20267;-60
2021/04/27 00:12:04;;;;;;;0.00;0.00;;;;;;;;;;5018786;28;20283;-61
2021/04/27 00:14:31;;;;;;;0.10;0.10;;;;;;;;;;5023673;28;20670;-61
2021/04/27 00:16:58;;;;;;;8.90;2.40;;;;;;;;;;5016685;28;20199;-61
2021/04/27 00:19:24;;;;;;;0.33;0.33;;;;;;;;;;5012688;28;20191;-61
2021/04/27 00:21:51;;;;;;;0.10;0.10;;;;;;;;;;5020193;28;20266;-61
2021/04/27 00:24:18;;;;;;;0.00;0.00;;;;;;;;;;5020684;28;20180;-61
2021/04/27 00:26:45;;;;;;;0.00;0.00;;;;;;;;;;5020763;28;20726;-62
2021/04/27 00:29:11;;;;;;;0.00;0.00;;;;;;;;;;5019245;28;20255;-61
2021/04/27 00:31:39;;;;;;;0.00;0.00;;;;;;;;;;5019052;28;20185;-62
2021/04/27 00:34:06;;;;;;;0.10;0.10;;;;;;;;;;5010424;28;20207;-61
2021/04/27 00:36:33;;;;;;;0.03;0.03;;;;;;;;;;5018341;28;20234;-62
2021/04/27 00:38:59;;;;;;;0.00;0.00;;;;;;;;;;5011668;28;20184;-63
2021/04/27 00:41:26;;;;;;;0.00;0.00;;;;;;;;;;5009704;28;20204;-61
2021/04/27 00:43:53;;;;;;;0.00;0.00;;;;;;;;;;5014615;28;20283;-61
2021/04/27 00:46:20;;;;;;;0.33;0.23;;;;;;;;;;5016111;28;20184;-60
2021/04/27 00:48:47;;;;;;;0.00;0.00;;;;;;;;;;5012536;28;20180;-60
2021/04/27 00:51:14;;;;;;;0.17;0.00;;;;;;;;;;5011941;28;20848;-60
2021/04/27 00:53:41;;;;;;;0.00;0.00;;;;;;;;;;5020158;28;20901;-60
2021/04/27 00:56:08;;;;;;;1.80;0.37;;;;;;;;;;5018927;28;20176;-61
2021/04/27 00:58:35;;;;;;;0.10;0.10;;;;;;;;;;5005194;28;20921;-60
2021/04/27 01:01:02;;;;;;;0.77;0.60;;;;;;;;;;5029044;28;20229;-61
2021/04/27 01:03:29;;;;;;;0.10;0.10;;;;;;;;;;5027395;28;20183;-61
2021/04/27 01:05:56;;;;;;;0.00;0.00;;;;;;;;;;5023145;28;20194;-61
2021/04/27 01:08:41;;;;;;;0.00;0.00;;;;;;;;;;5022016;28;21696;-62
2021/04/27 01:11:21;;;;;;;0.20;0.00;;;;;;;;;;5020331;28;20180;-61
2021/04/27 01:14:08;;;;;;;0.23;0.23;;;;;;;;;;5022254;28;20223;-62
2021/04/27 01:16:39;;;;;;;0.03;0.03;;;;;;;;;;5023710;28;20183;-61
2021/04/27 01:19:08;;;;;;;0.20;0.20;;;;;;;;;;5016256;28;20544;-61
2021/04/27 01:21:35;;;;;;;0.50;0.10;;;;;;;;;;5010653;28;20187;-60
2021/04/27 01:24:01;;;;;;;0.00;0.00;;;;;;;;;;5019556;28;20194;-63
2021/04/27 01:26:31;;;;;;;1.80;0.97;;;;;;;;;;5013286;28;20222;-63
2021/04/27 01:28:57;;;;;;;0.10;0.10;;;;;;;;;;5019263;28;20184;-62
2021/04/27 01:31:26;;;;;;;0.10;0.10;;;;;;;;;;5015700;28;20189;-62
2021/04/27 01:33:52;;;;;;;0.10;0.10;;;;;;;;;;5020714;28;20309;-62
2021/04/27 01:36:19;;;;;;;0.20;0.20;;;;;;;;;;5021170;28;20442;-62
2021/04/27 01:38:47;;;;;;;0.30;0.30;;;;;;;;;;5021404;28;20173;-62
2021/04/27 01:41:17;;;;;;;0.10;0.10;;;;;;;;;;5020833;28;20192;-61
2021/04/27 01:43:45;;;;;;;0.20;0.20;;;;;;;;;;5021991;28;20191;-61
2021/04/27 01:46:13;;;;;;;0.20;0.20;;;;;;;;;;5026311;28;20184;-62
2021/04/27 01:48:42;;;;;;;0.30;0.30;;;;;;;;;;5023223;28;20201;-62
2021/04/27 01:51:10;;;;;;;0.20;0.20;;;;;;;;;;5013503;28;20275;-62
2021/04/27 01:53:41;;;;;;;0.10;0.10;;;;;;;;;;5016802;28;20987;-62
2021/04/27 01:56:10;;;;;;;0.30;0.30;;;;;;;;;;5016494;28;20179;-62
2021/04/27 01:58:36;;;;;;;0.87;0.87;;;;;;;;;;5016170;28;20184;-62
2021/04/27 02:01:05;;;;;;;0.10;0.10;;;;;;;;;;5017933;28;20549;-62
2021/04/27 02:03:39;;;;;;;0.20;0.20;;;;;;;;;;5023713;28;20179;-62
2021/04/27 02:06:12;;;;;;;0.20;0.20;;;;;;;;;;5034814;28;20184;-62
2021/04/27 02:08:40;;;;;;;0.10;0.10;;;;;;;;;;5025190;28;21091;-62
2021/04/27 02:11:11;;;;;;;1.33;0.47;;;;;;;;;;5028936;28;20214;-63
2021/04/27 02:13:38;;;;;;;0.00;0.00;;;;;;;;;;5026079;28;20216;-62
2021/04/27 02:16:08;;;;;;;0.50;0.50;;;;;;;;;;5029476;28;20180;-62
2021/04/27 02:18:54;;;;;;;0.27;0.27;;;;;;;;;;5019467;28;20235;-62
2021/04/27 02:21:22;;;;;;;0.20;0.10;;;;;;;;;;5023449;28;20194;-64
2021/04/27 02:23:49;;;;;;;0.00;0.00;;;;;;;;;;5019981;28;20238;-62
2021/04/27 02:26:16;;;;;;;0.10;0.10;;;;;;;;;;5020427;28;20191;-64
2021/04/27 02:28:43;;;;;;;0.27;0.27;;;;;;;;;;5011813;28;20235;-63
2021/04/27 02:31:13;;;;;;;0.20;0.10;;;;;;;;;;5008870;28;20279;-63
2021/04/27 02:33:40;;;;;;;0.00;0.00;;;;;;;;;;5012463;28;20203;-63
2021/04/27 02:36:08;;;;;;;0.30;0.30;;;;;;;;;;5024350;28;20219;-62
2021/04/27 02:38:37;;;;;;;0.00;0.00;;;;;;;;;;5018790;28;20186;-63
2021/04/27 02:41:04;;;;;;;0.00;0.00;;;;;;;;;;5013540;28;20196;-62
2021/04/27 02:43:31;;;;;;;0.00;0.00;;;;;;;;;;5028516;28;20206;-63
2021/04/27 02:45:57;;;;;;;1.27;0.43;;;;;;;;;;5022684;28;20218;-62
2021/04/27 02:48:25;;;;;;;0.10;0.10;;;;;;;;;;5023991;28;20274;-63
2021/04/27 02:50:57;;;;;;;0.00;0.00;;;;;;;;;;5010674;28;20188;-63
2021/04/27 02:53:25;;;;;;;0.00;0.00;;;;;;;;;;5013092;28;20816;-63
2021/04/27 02:55:51;;;;;;;0.00;0.00;;;;;;;;;;5011307;28;20180;-62
2021/04/27 02:58:18;;;;;;;0.00;0.00;;;;;;;;;;5006868;28;20185;-63
2021/04/27 03:00:45;;;;;;;0.00;0.00;;;;;;;;;;5007439;28;20178;-63
2021/04/27 03:03:12;;;;;;;0.00;0.00;;;;;;;;;;5012419;28;20253;-63
2021/04/27 03:05:40;;;;;;;0.17;0.17;;;;;;;;;;5015847;28;20553;-63
2021/04/27 03:08:07;;;;;;;5.87;4.17;;;;;;;;;;5016094;28;20196;-64
2021/04/27 03:10:34;;;;;;;0.03;0.03;;;;;;;;;;5011157;28;20188;-63
2021/04/27 03:13:00;;;;;;;2.47;0.87;;;;;;;;;;5012688;28;20211;-62
2021/04/27 03:15:27;;;;;;;0.23;0.23;;;;;;;;;;5013720;28;20198;-62
2021/04/27 03:17:55;;;;;;;0.17;0.17;;;;;;;;;;5013122;28;20192;-62
2021/04/27 03:20:21;;;;;;;0.00;0.00;;;;;;;;;;5013440;28;20489;-63
2021/04/27 03:22:48;;;;;;;0.10;0.10;;;;;;;;;;5016631;28;20183;-63
2021/04/27 03:25:15;;;;;;;0.10;0.10;;;;;;;;;;5008758;28;20191;-62
2021/04/27 03:27:42;;;;;;;0.20;0.20;;;;;;;;;;5012280;28;20747;-62
2021/04/27 03:30:09;;;;;;;0.30;0.30;;;;;;;;;;5012621;28;20197;-63
2021/04/27 03:32:36;;;;;;;0.10;0.10;;;;;;;;;;5018000;28;20191;-63
2021/04/27 03:35:03;;;;;;;0.67;0.67;;;;;;;;;;5008193;28;20267;-63
2021/04/27 03:37:30;;;;;;;0.13;0.13;;;;;;;;;;5005120;28;20187;-62
2021/04/27 03:39:57;;;;;;;0.10;0.10;;;;;;;;;;5006488;28;20193;-62
2021/04/27 03:42:23;;;;;;;0.50;0.50;;;;;;;;;;5005054;28;21034;-62
2021/04/27 03:44:50;;;;;;;0.30;0.30;;;;;;;;;;5006633;28;20195;-62
2021/04/27 03:47:17;;;;;;;0.10;0.10;;;;;;;;;;5009348;28;20303;-62
2021/04/27 03:49:43;;;;;;;0.10;0.10;;;;;;;;;;5013054;28;20198;-63
2021/04/27 03:52:10;;;;;;;0.00;0.00;;;;;;;;;;5009518;28;20227;-62
2021/04/27 03:54:37;;;;;;;0.57;0.20;;;;;;;;;;5016886;28;20207;-62
2021/04/27 03:57:04;;;;;;;0.67;0.67;;;;;;;;;;5011758;28;20270;-63
2021/04/27 03:59:32;;;;;;;0.10;0.10;;;;;;;;;;5010222;28;20176;-63
2021/04/27 04:01:59;;;;;;;0.20;0.20;;;;;;;;;;5013863;28;20322;-63
2021/04/27 04:04:26;;;;;;;0.10;0.10;;;;;;;;;;5005469;28;20190;-62
2021/04/27 04:06:53;;;;;;;0.10;0.10;;;;;;;;;;5003940;28;20191;-63
2021/04/27 04:09:20;;;;;;;0.10;0.10;;;;;;;;;;5010808;28;20197;-62
2021/04/27 04:11:47;;;;;;;0.20;0.20;;;;;;;;;;5010302;28;20179;-62
2021/04/27 04:14:13;;;;;;;0.10;0.10;;;;;;;;;;5021943;28;20963;-62
2021/04/27 04:16:40;;;;;;;0.03;0.03;;;;;;;;;;5011769;28;20172;-62
2021/04/27 04:19:06;;;;;;;0.73;0.20;;;;;;;;;;5009120;28;20188;-63
2021/04/27 04:21:33;;;;;;;0.20;0.20;;;;;;;;;;5013050;28;20207;-64
2021/04/27 04:24:00;;;;;;;0.00;0.00;;;;;;;;;;5012464;28;20215;-64
2021/04/27 04:26:28;;;;;;;0.10;0.10;;;;;;;;;;5012806;28;20187;-62
2021/04/27 04:28:54;;;;;;;0.10;0.10;;;;;;;;;;5005806;28;20190;-62
2021/04/27 04:31:21;;;;;;;0.20;0.20;;;;;;;;;;5013201;28;20175;-63
2021/04/27 04:33:47;;;;;;;0.00;0.00;;;;;;;;;;5009798;28;20208;-63
2021/04/27 04:36:14;;;;;;;1.00;0.63;;;;;;;;;;5013748;28;20931;-62
2021/04/27 04:38:41;;;;;;;0.27;0.27;;;;;;;;;;5007098;28;20172;-63
2021/04/27 04:41:09;;;;;;;0.10;0.10;;;;;;;;;;5009324;28;20180;-64
2021/04/27 04:43:37;;;;;;;0.17;0.17;;;;;;;;;;5017218;28;20181;-63
2021/04/27 04:46:04;;;;;;;0.07;0.07;;;;;;;;;;5011524;28;20179;-62
2021/04/27 04:48:30;;;;;;;0.17;0.17;;;;;;;;;;5010271;28;20559;-62
2021/04/27 04:50:57;;;;;;;0.77;0.77;;;;;;;;;;5007874;28;20643;-62
2021/04/27 04:53:25;;;;;;;0.40;0.40;;;;;;;;;;5015028;28;20323;-62
2021/04/27 04:55:51;;;;;;;0.00;0.00;;;;;;;;;;5007788;28;20184;-63
2021/04/27 04:58:18;;;;;;;7.93;0.60;;;;;;;;;;5006766;28;20678;-63
2021/04/27 05:00:44;;;;;;;1.47;0.27;;;;;;;;;;5011495;28;20255;-63
2021/04/27 05:03:13;;;;;;;0.03;0.03;;;;;;;;;;5009917;28;20192;-62
2021/04/27 05:05:42;;;;;;;0.57;0.20;;;;;;;;;;5006206;28;20279;-62
2021/04/27 05:08:12;;;;;;;0.00;0.00;;;;;;;;;;5012853;28;20185;-63
2021/04/27 05:10:39;;;;;;;0.00;0.00;;;;;;;;;;5012838;28;20221;-63
2021/04/27 05:13:06;;;;;;;0.00;0.00;;;;;;;;;;5004227;28;20198;-62
2021/04/27 13:20:38;;;;;;;0.00;0.00;;;;;;;;;;5072918;28;20565;-63
2021/04/27 13:23:07;;;;;;;1.20;0.63;;;;;;;;;;5075541;28;20676;-62
2021/04/27 13:25:36;;;;;;;0.13;0.13;;;;;;;;;;5074271;28;20199;-63
2021/04/27 13:28:04;;;;;;;0.00;0.00;;;;;;;;;;5074041;28;20178;-63
2021/04/27 13:30:35;;;;;;;0.00;0.00;;;;;;;;;;5073519;28;20889;-64
2021/04/27 13:33:04;;;;;;;0.03;0.00;;;;;;;;;;5074213;28;20179;-63
2021/04/27 13:35:35;;;;;;;0.10;0.10;;;;;;;;;;5072785;28;20674;-63
2021/04/27 13:38:03;;;;;;;0.10;0.10;;;;;;;;;;5073677;28;20187;-62
2021/04/27 13:40:30;;;;;;;0.00;0.00;;;;;;;;;;5073212;28;20184;-63
2021/04/27 13:43:01;;;;;;;0.00;0.00;;;;;;;;;;5071809;28;20210;-64
2021/04/27 13:45:31;;;;;;;0.00;0.00;;;;;;;;;;5072321;28;20188;-63
2021/04/27 13:48:05;;;;;;;0.20;0.20;;;;;;;;;;5075026;28;20215;-63
2021/04/27 13:50:32;;;;;;;0.20;0.20;;;;;;;;;;5073686;28;20895;-62
2021/04/27 13:52:59;;;;;;;0.47;0.17;;;;;;;;;;5072492;28;20197;-62
2021/04/27 13:55:27;;;;;;;0.00;0.00;;;;;;;;;;5073429;28;20200;-63
2021/04/27 13:57:53;;;;;;;0.10;0.10;;;;;;;;;;5075220;28;20243;-62
2021/04/27 14:00:21;;;;;;;0.00;0.00;;;;;;;;;;5073398;28;20205;-62
2021/04/27 14:02:48;;;;;;;18.37;1.17;;;;;;;;;;5070557;28;20522;-64
2021/04/27 14:05:15;;;;;;;1.60;0.83;;;;;;;;;;5073960;28;20176;-63
2021/04/27 14:07:42;;;;;;;0.20;0.20;;;;;;;;;;5069507;28;20181;-64
2021/04/27 14:10:13;;;;;;;0.00;0.00;;;;;;;;;;5075709;28;20183;-64
2021/04/27 14:12:39;;;;;;;2.57;1.63;;;;;;;;;;5072699;28;20187;-64
2021/04/27 14:15:09;;;;;;;0.43;0.03;;;;;;;;;;5069184;28;20203;-65
2021/04/27 14:17:38;;;;;;;1.67;1.10;;;;;;;;;;5073125;28;20183;-65
2021/04/27 14:20:05;;;;;;;0.00;0.00;;;;;;;;;;5073167;28;20218;-64
2021/04/27 14:22:31;;;;;;;1.30;0.30;;;;;;;;;;5074551;28;20197;-64
2021/04/27 14:24:58;;;;;;;0.20;0.20;;;;;;;;;;5072391;28;20171;-63
2021/04/27 14:27:24;;;;;;;0.00;0.00;;;;;;;;;;5071627;28;20456;-65
2021/04/27 14:29:51;;;;;;;0.00;0.00;;;;;;;;;;5069642;28;20173;-63
2021/04/27 14:32:18;;;;;;;0.73;0.73;;;;;;;;;;5054303;28;20194;-65
2021/04/27 14:34:45;;;;;;;0.00;0.00;;;;;;;;;;5054387;28;20416;-67
2021/04/27 14:37:11;;;;;;;3.80;2.63;;;;;;;;;;5052131;28;20195;-65
2021/04/27 14:39:38;;;;;;;0.00;0.00;;;;;;;;;;5055381;28;20224;-63
2021/04/27 14:42:05;;;;;;;0.00;0.00;;;;;;;;;;5060561;28;20265;-64
2021/04/27 14:44:32;;;;;;;0.23;0.17;;;;;;;;;;5051314;28;20249;-62
2021/04/27 14:46:59;;;;;;;0.00;0.00;;;;;;;;;;5052854;28;20182;-62
2021/04/27 14:49:25;;;;;;;0.00;0.00;;;;;;;;;;5049734;28;20190;-62
2021/04/27 14:51:52;;;;;;;0.30;0.23;;;;;;;;;;5046990;28;20338;-62
2021/04/27 14:54:19;;;;;;;1.80;0.43;;;;;;;;;;5050761;28;20213;-61
2021/04/27 14:56:46;;;;;;;0.10;0.10;;;;;;;;;;5047122;28;20675;-62
2021/04/27 14:59:13;;;;;;;0.00;0.00;;;;;;;;;;5051911;28;20637;-62
2021/04/27 15:01:40;;;;;;;1.10;1.10;;;;;;;;;;5046903;28;20528;-62
2021/04/27 15:04:07;;;;;;;0.00;0.00;;;;;;;;;;5054311;28;20196;-62
2021/04/27 15:06:33;;;;;;;0.00;0.00;;;;;;;;;;5056263;28;20187;-62
2021/04/27 15:09:00;;;;;;;0.30;0.10;;;;;;;;;;5049904;28;20903;-62
2021/04/27 15:11:28;;;;;;;0.00;0.00;;;;;;;;;;5053317;28;20183;-63
2021/04/27 15:13:55;;;;;;;0.00;0.00;;;;;;;;;;5047012;28;20188;-60
2021/04/27 15:16:21;;;;;;;0.00;0.00;;;;;;;;;;5050720;28;20591;-63
2021/04/27 15:18:48;;;;;;;0.13;0.10;;;;;;;;;;5053903;28;20774;-62
2021/04/27 15:21:16;;;;;;;0.20;0.20;;;;;;;;;;5062113;28;20609;-62
2021/04/27 15:23:43;;;;;;;0.00;0.00;;;;;;;;;;5051600;28;20178;-61
2021/04/27 15:26:10;;;;;;;0.00;0.00;;;;;;;;;;5055502;28;20562;-62
2021/04/27 15:28:36;;;;;;;0.00;0.00;;;;;;;;;;5052464;28;20190;-61
2021/04/27 15:31:09;;;;;;;0.00;0.00;;;;;;;;;;5047565;28;20194;-61
2021/04/27 15:33:36;;;;;;;0.00;0.00;;;;;;;;;;5048988;28;20186;-61
2021/04/27 15:36:04;;;;;;;0.00;0.00;;;;;;;;;;5042819;28;20232;-61
2021/04/27 15:38:32;;;;;;;0.00;0.00;;;;;;;;;;5052409;28;20210;-60
2021/04/27 15:40:59;;;;;;;0.00;0.00;;;;;;;;;;5054075;28;20193;-60
2021/04/27 15:43:25;;;;;;;0.40;0.10;;;;;;;;;;5051581;28;20212;-60
2021/04/27 15:45:52;;;;;;;0.40;0.10;;;;;;;;;;5053746;28;20613;-60
2021/04/27 15:48:18;;;;;;;0.20;0.10;;;;;;;;;;5056222;28;20704;-61
2021/04/27 15:50:45;;;;;;;0.00;0.00;;;;;;;;;;5054450;28;20190;-60
2021/04/27 15:53:11;;;;;;;0.43;0.40;;;;;;;;;;5060402;28;20188;-60
2021/04/27 15:55:38;;;;;;;0.10;0.10;;;;;;;;;;5060127;28;20225;-61
2021/04/27 15:58:05;;;;;;;8.73;1.17;;;;;;;;;;5056863;28;20228;-61
2021/04/27 16:00:33;;;;;;;0.50;0.33;;;;;;;;;;5055433;28;20202;-62
2021/04/27 16:03:00;;;;;;;0.00;0.00;;;;;;;;;;5056503;28;20188;-61
2021/04/27 16:05:28;;;;;;;1.40;1.30;;;;;;;;;;5055928;28;20207;-62
2021/04/27 16:07:56;;;;;;;0.97;0.60;;;;;;;;;;5052368;28;20175;-61
2021/04/27 16:10:22;;;;;;;0.70;0.70;;;;;;;;;;5056165;28;21025;-61
2021/04/27 16:12:50;;;;;;;0.03;0.03;;;;;;;;;;5056841;28;20183;-61
2021/04/27 16:15:17;;;;;;;4.30;2.87;;;;;;;;;;5056542;28;20658;-61
2021/04/27 16:17:44;;;;;;;1.23;0.37;;;;;;;;;;5051957;28;20233;-62
2021/04/27 16:20:11;;;;;;;9.80;1.40;;;;;;;;;;5052283;28;20227;-62
2021/04/27 16:22:38;;;;;;;1.20;1.10;;;;;;;;;;5055331;28;20198;-62
2021/04/27 16:25:05;;;;;;;0.13;0.13;;;;;;;;;;5055356;28;20187;-61
2021/04/27 16:27:32;;;;;;;0.00;0.00;;;;;;;;;;5052220;28;20193;-60
2021/04/27 16:29:59;;;;;;;0.20;0.17;;;;;;;;;;5061561;28;20181;-61
2021/04/27 16:32:25;;;;;;;0.30;0.20;;;;;;;;;;5056884;28;20816;-61
2021/04/27 16:34:53;;;;;;;0.60;0.50;;;;;;;;;;5058083;28;20183;-61
2021/04/27 16:37:20;;;;;;;0.47;0.27;;;;;;;;;;5056043;28;20179;-59
2021/04/27 16:39:47;;;;;;;0.00;0.00;;;;;;;;;;5054145;28;20624;-60
2021/04/27 16:42:13;;;;;;;7.97;1.93;;;;;;;;;;5050666;28;20173;-58
2021/04/27 16:44:40;;;;;;;0.63;0.30;;;;;;;;;;5055717;28;20636;-60
2021/04/27 16:47:07;;;;;;;0.00;0.00;;;;;;;;;;5058038;28;20244;-60
2021/04/27 16:49:34;;;;;;;2.10;0.87;;;;;;;;;;5055908;28;20685;-61
2021/04/27 16:52:00;;;;;;;0.00;0.00;;;;;;;;;;5056712;28;20667;-61
2021/04/27 16:54:27;;;;;;;0.30;0.27;;;;;;;;;;5054122;28;20373;-64
2021/04/27 16:56:53;;;;;;;0.03;0.03;;;;;;;;;;5050088;28;20241;-61
2021/04/27 16:59:20;;;;;;;0.07;0.03;;;;;;;;;;5056832;28;20189;-63
2021/04/27 17:01:46;;;;;;;0.17;0.17;;;;;;;;;;5057413;28;20251;-60
2021/04/27 17:04:13;;;;;;;0.00;0.00;;;;;;;;;;5049707;28;20180;-62
2021/04/27 17:06:39;;;;;;;1.10;0.40;;;;;;;;;;5053177;28;20187;-61
2021/04/27 17:09:08;;;;;;;0.27;0.27;;;;;;;;;;5052942;28;20182;-59
2021/04/27 17:11:34;;;;;;;0.07;0.07;;;;;;;;;;5053441;28;20187;-59
2021/04/27 17:14:01;;;;;;;1.70;0.87;;;;;;;;;;5049173;28;20899;-60
2021/04/27 17:16:28;;;;;;;5.27;0.83;;;;;;;;;;5057647;28;20193;-59
2021/04/27 17:18:54;;;;;;;0.80;0.20;;;;;;;;;;5061455;28;20253;-61
2021/04/27 17:21:21;;;;;;;1.70;0.43;;;;;;;;;;5051355;28;20632;-63
2021/04/27 17:23:47;;;;;;;1.47;1.37;;;;;;;;;;5056956;28;20183;-61
2021/04/27 17:26:14;;;;;;;1.07;0.30;;;;;;;;;;5054505;28;20422;-61
2021/04/27 17:28:40;;;;;;;0.77;0.27;;;;;;;;;;5056374;28;20880;-61
2021/04/27 17:31:07;;;;;;;0.00;0.00;;;;;;;;;;5055429;28;20215;-62
2021/04/27 17:33:34;;;;;;;0.00;0.00;;;;;;;;;;5048092;28;20186;-60
2021/04/27 17:36:00;;;;;;;0.23;0.20;;;;;;;;;;5053983;28;20179;-61
2021/04/27 17:38:27;;;;;;;0.00;0.00;;;;;;;;;;5054013;28;20197;-60
2021/04/27 17:40:53;;;;;;;0.00;0.00;;;;;;;;;;5048612;28;20179;-61
2021/04/27 17:43:20;;;;;;;0.07;0.07;;;;;;;;;;5057207;28;20182;-60
2021/04/27 17:45:47;;;;;;;0.50;0.50;;;;;;;;;;5043552;28;20179;-61
2021/04/27 17:48:13;;;;;;;2.03;1.20;;;;;;;;;;5048984;28;20183;-61
2021/04/27 17:50:40;;;;;;;0.10;0.10;;;;;;;;;;5061312;28;20188;-62
2021/04/27 17:53:08;;;;;;;0.20;0.13;;;;;;;;;;5058543;28;20281;-61
2021/04/27 17:55:35;;;;;;;0.73;0.20;;;;;;;;;;5049807;28;20195;-60
2021/04/27 17:58:02;;;;;;;0.00;0.00;;;;;;;;;;5049758;28;20652;-60
2021/04/27 18:00:28;;;;;;;0.03;0.03;;;;;;;;;;5053978;28;20229;-60
2021/04/27 18:02:56;;;;;;;0.00;0.00;;;;;;;;;;5049279;28;20173;-60
2021/04/27 18:05:24;;;;;;;0.10;0.10;;;;;;;;;;5054212;28;20277;-60
2021/04/27 18:07:50;;;;;;;0.13;0.13;;;;;;;;;;5060450;28;20176;-60
2021/04/27 18:10:18;;;;;;;0.30;0.20;;;;;;;;;;5060220;28;20194;-60
2021/04/27 18:12:45;;;;;;;0.00;0.00;;;;;;;;;;5059009;28;20225;-60
2021/04/27 18:15:12;;;;;;;0.00;0.00;;;;;;;;;;5063191;28;20184;-60
2021/04/27 18:17:40;;;;;;;0.00;0.00;;;;;;;;;;5058938;28;20275;-60
2021/04/27 18:20:07;;;;;;;0.00;0.00;;;;;;;;;;5058785;28;20269;-60
2021/04/27 18:22:34;;;;;;;0.50;0.40;;;;;;;;;;5058829;28;20202;-60
2021/04/27 18:25:01;;;;;;;2.80;0.93;;;;;;;;;;5064374;28;20186;-61
2021/04/27 18:27:27;;;;;;;1.60;0.50;;;;;;;;;;5056047;28;20172;-60
2021/04/27 18:29:54;;;;;;;0.77;0.40;;;;;;;;;;5053380;28;20182;-61
2021/04/27 18:32:23;;;;;;;3.57;0.27;;;;;;;;;;5062178;28;20184;-61
2021/04/27 18:34:50;;;;;;;0.50;0.30;;;;;;;;;;5050614;28;20172;-61
2021/04/27 18:37:18;;;;;;;0.00;0.00;;;;;;;;;;5049159;28;20186;-61
2021/04/27 18:39:45;;;;;;;0.00;0.00;;;;;;;;;;5048134;28;20644;-61
2021/04/27 18:42:13;;;;;;;4.83;1.20;;;;;;;;;;5052584;28;20178;-61
2021/04/27 18:44:39;;;;;;;0.00;0.00;;;;;;;;;;5055419;28;20636;-62
2021/04/27 18:47:06;;;;;;;0.00;0.00;;;;;;;;;;5058901;28;20190;-62
2021/04/27 18:49:32;;;;;;;0.07;0.07;;;;;;;;;;5063781;28;20186;-62
2021/04/27 18:51:59;;;;;;;3.20;0.63;;;;;;;;;;5057949;28;20187;-62
2021/04/27 18:54:25;;;;;;;0.00;0.00;;;;;;;;;;5057791;28;20192;-62
2021/04/27 18:56:52;;;;;;;0.00;0.00;;;;;;;;;;5064482;28;20194;-62
2021/04/27 18:59:19;;;;;;;0.00;0.00;;;;;;;;;;5058665;28;20326;-62
2021/04/27 19:01:47;;;;;;;0.10;0.03;;;;;;;;;;5057691;28;20197;-62
2021/04/27 19:04:13;;;;;;;0.00;0.00;;;;;;;;;;5050413;28;20187;-61
2021/04/27 19:06:40;;;;;;;0.57;0.30;;;;;;;;;;5055558;28;20518;-62
2021/04/27 19:09:06;;;;;;;1.57;1.50;;;;;;;;;;5046666;28;20194;-60
2021/04/27 19:11:33;;;;;;;1.40;0.30;;;;;;;;;;5054887;28;20269;-61
2021/04/27 19:14:00;;;;;;;0.00;0.00;;;;;;;;;;5053331;28;20210;-60
2021/04/27 19:16:26;;;;;;;0.00;0.00;;;;;;;;;;5054538;28;20194;-60
2021/04/27 19:18:54;;;;;;;0.00;0.00;;;;;;;;;;5054628;28;21030;-60
2021/04/27 19:21:20;;;;;;;2.30;0.43;;;;;;;;;;5056284;28;20660;-59
2021/04/27 19:23:47;;;;;;;3.20;1.23;;;;;;;;;;5055030;28;20179;-60
2021/04/27 19:26:14;;;;;;;2.03;1.83;;;;;;;;;;5050325;28;20183;-59
2021/04/27 19:28:40;;;;;;;0.00;0.00;;;;;;;;;;5049780;28;20175;-59
2021/04/27 19:31:07;;;;;;;0.00;0.00;;;;;;;;;;5051084;28;20175;-58
2021/04/27 19:33:35;;;;;;;0.10;0.10;;;;;;;;;;5054603;28;20206;-59
2021/04/27 19:36:02;;;;;;;0.10;0.10;;;;;;;;;;5052677;28;20255;-59
2021/04/27 19:38:29;;;;;;;0.30;0.30;;;;;;;;;;5055662;28;20483;-59
2021/04/27 19:40:56;;;;;;;0.33;0.23;;;;;;;;;;5054212;28;20195;-60
2021/04/27 19:43:22;;;;;;;0.53;0.10;;;;;;;;;;5054701;28;20195;-59
2021/04/27 19:45:49;;;;;;;0.03;0.03;;;;;;;;;;5053745;28;20175;-59
2021/04/27 19:48:15;;;;;;;0.13;0.13;;;;;;;;;;5055542;28;21085;-60
2021/04/27 19:50:42;;;;;;;1.40;0.20;;;;;;;;;;5053891;28;20262;-60
2021/04/27 19:53:11;;;;;;;0.13;0.13;;;;;;;;;;5047819;28;20198;-60
2021/04/27 19:55:40;;;;;;;0.00;0.00;;;;;;;;;;5050724;28;20638;-61
2021/04/27 19:58:06;;;;;;;0.33;0.33;;;;;;;;;;5051879;28;20193;-59
2021/04/27 20:00:35;;;;;;;0.00;0.00;;;;;;;;;;5051122;28;21017;-61
2021/04/27 20:03:03;;;;;;;0.93;0.30;;;;;;;;;;5051329;28;20536;-60
2021/04/27 20:05:30;;;;;;;1.10;1.00;;;;;;;;;;5051579;28;20186;-61
2021/04/27 20:07:57;;;;;;;0.10;0.10;;;;;;;;;;5049991;28;20176;-61
2021/04/27 20:10:24;;;;;;;1.70;0.20;;;;;;;;;;5051879;28;20435;-58
2021/04/27 20:12:51;;;;;;;0.00;0.00;;;;;;;;;;5052867;28;20182;-58
2021/04/27 20:15:18;;;;;;;0.83;0.40;;;;;;;;;;5056018;28;20176;-58
2021/04/27 20:17:45;;;;;;;0.00;0.00;;;;;;;;;;5051347;28;20175;-58
2021/04/27 20:20:12;;;;;;;0.00;0.00;;;;;;;;;;5049476;28;20236;-58
2021/04/27 20:22:39;;;;;;;0.20;0.20;;;;;;;;;;5053630;28;20210;-58
2021/04/27 20:25:07;;;;;;;0.00;0.00;;;;;;;;;;5053818;28;20533;-59
2021/04/27 20:27:34;;;;;;;0.00;0.00;;;;;;;;;;5052539;28;20262;-58
2021/04/27 20:30:00;;;;;;;0.20;0.20;;;;;;;;;;5055695;28;20719;-58
2021/04/27 20:32:27;;;;;;;0.10;0.10;;;;;;;;;;5047221;28;20182;-58
2021/04/27 20:34:54;;;;;;;0.00;0.00;;;;;;;;;;5048808;28;20183;-59
2021/04/27 20:37:21;;;;;;;0.27;0.27;;;;;;;;;;5052828;28;20187;-59
2021/04/27 20:39:49;;;;;;;0.00;0.00;;;;;;;;;;5052628;28;20210;-59
2021/04/27 20:42:15;;;;;;;0.00;0.00;;;;;;;;;;5054572;28;20187;-59
2021/04/27 20:44:42;;;;;;;0.00;0.00;;;;;;;;;;5049518;28;20599;-59
2021/04/27 20:47:10;;;;;;;0.10;0.10;;;;;;;;;;5048049;28;20209;-59
2021/04/27 20:49:39;;;;;;;0.00;0.00;;;;;;;;;;5050642;28;20585;-60
2021/04/27 20:52:06;;;;;;;0.00;0.00;;;;;;;;;;5056940;28;20224;-59
2021/04/27 20:54:33;;;;;;;0.00;0.00;;;;;;;;;;5054248;28;20782;-60
2021/04/27 20:57:00;;;;;;;0.37;0.30;;;;;;;;;;5045912;28;20192;-59
2021/04/27 20:59:29;;;;;;;0.00;0.00;;;;;;;;;;5061039;28;20272;-60
2021/04/27 21:01:55;;;;;;;0.07;0.03;;;;;;;;;;5048601;28;20180;-60
2021/04/27 21:04:22;;;;;;;0.00;0.00;;;;;;;;;;5036173;28;20495;-59
2021/04/27 21:06:48;;;;;;;0.57;0.57;;;;;;;;;;5035846;28;20916;-60
2021/04/27 21:09:15;;;;;;;0.00;0.00;;;;;;;;;;5048831;28;20252;-60
2021/04/27 21:11:42;;;;;;;0.67;0.67;;;;;;;;;;5054768;28;20537;-60
2021/04/27 21:14:09;;;;;;;0.00;0.00;;;;;;;;;;5053197;28;20573;-58
2021/04/27 21:16:35;;;;;;;0.00;0.00;;;;;;;;;;5047827;28;20271;-59
2021/04/27 21:19:02;;;;;;;0.33;0.10;;;;;;;;;;5042648;28;20227;-59
2021/04/27 21:21:28;;;;;;;0.00;0.00;;;;;;;;;;5052657;28;20978;-59
2021/04/27 21:23:55;;;;;;;0.00;0.00;;;;;;;;;;5052737;28;20206;-58
2021/04/27 21:26:22;;;;;;;0.40;0.40;;;;;;;;;;5048106;28;20202;-59
2021/04/27 21:28:48;;;;;;;0.00;0.00;;;;;;;;;;5068718;28;20525;-60
2021/04/27 21:31:15;;;;;;;2.23;0.60;;;;;;;;;;5050023;28;20190;-59
2021/04/27 21:33:43;;;;;;;0.43;0.20;;;;;;;;;;5045759;28;20194;-59
2021/04/27 21:36:10;;;;;;;0.00;0.00;;;;;;;;;;5050379;28;20183;-59
2021/04/27 21:38:37;;;;;;;0.00;0.00;;;;;;;;;;5044535;28;20595;-60
2021/04/27 21:41:04;;;;;;;0.50;0.50;;;;;;;;;;5053679;28;20176;-59
2021/04/27 21:43:30;;;;;;;0.60;0.30;;;;;;;;;;5046973;28;20220;-59
2021/04/27 21:45:57;;;;;;;0.00;0.00;;;;;;;;;;5053753;28;20179;-59
2021/04/27 21:48:24;;;;;;;0.00;0.00;;;;;;;;;;5054023;28;20183;-60
2021/04/27 21:50:50;;;;;;;0.00;0.00;;;;;;;;;;5054856;28;20187;-59
2021/04/27 21:53:19;;;;;;;0.00;0.00;;;;;;;;;;5043553;28;20187;-59
2021/04/27 21:55:45;;;;;;;0.00;0.00;;;;;;;;;;5055476;28;20648;-59
2021/04/27 21:58:12;;;;;;;0.00;0.00;;;;;;;;;;5042359;28;20196;-59
2021/04/27 22:00:39;;;;;;;0.00;0.00;;;;;;;;;;5046188;28;20734;-59
2021/04/27 22:03:07;;;;;;;0.00;0.00;;;;;;;;;;5044621;28;20175;-59
2021/04/27 22:05:34;;;;;;;0.00;0.00;;;;;;;;;;5059017;28;20187;-60
2021/04/27 22:08:01;;;;;;;0.30;0.30;;;;;;;;;;5051918;28;20493;-59
2021/04/27 22:10:29;;;;;;;0.30;0.20;;;;;;;;;;5057881;28;20190;-60
2021/04/27 22:12:56;;;;;;;0.33;0.33;;;;;;;;;;5043310;28;20195;-59
2021/04/27 22:15:23;;;;;;;0.87;0.33;;;;;;;;;;5055027;28;20547;-59
2021/04/27 22:17:50;;;;;;;1.20;0.20;;;;;;;;;;5057208;28;20311;-59
2021/04/27 22:20:17;;;;;;;0.33;0.33;;;;;;;;;;5059521;28;21067;-59
2021/04/27 22:22:44;;;;;;;0.00;0.00;;;;;;;;;;5054749;28;20205;-59
2021/04/27 22:25:11;;;;;;;0.10;0.10;;;;;;;;;;5054858;28;20245;-59
2021/04/27 22:27:38;;;;;;;0.10;0.10;;;;;;;;;;5041120;28;20423;-59
2021/04/27 22:30:07;;;;;;;0.00;0.00;;;;;;;;;;5063331;28;20479;-58
2021/04/27 22:32:34;;;;;;;0.07;0.07;;;;;;;;;;5047351;28;20715;-58
2021/04/27 22:35:01;;;;;;;0.10;0.10;;;;;;;;;;5044322;28;20295;-58
2021/04/27 22:37:28;;;;;;;0.00;0.00;;;;;;;;;;5044866;28;20265;-58
2021/04/27 22:39:55;;;;;;;0.10;0.10;;;;;;;;;;5038781;28;20715;-58
2021/04/27 22:42:23;;;;;;;0.07;0.07;;;;;;;;;;5046960;28;20185;-58
2021/04/27 22:44:49;;;;;;;0.00;0.00;;;;;;;;;;5053375;28;20184;-58
2021/04/27 22:47:16;;;;;;;0.13;0.13;;;;;;;;;;5056128;28;20181;-57
2021/04/27 22:49:42;;;;;;;0.10;0.10;;;;;;;;;;5051978;28;20237;-57